createdAt,value
2023-02-01T00:04:12.133Z,9.50
2023-02-01T00:09:22.194Z,6.83
2023-02-01T00:14:27.071Z,7.87
2023-02-01T00:19:32.069Z,6.77
2023-02-01T00:24:40.146Z,8.23
2023-02-01T00:29:46.258Z,11.43
2023-02-01T00:34:53.170Z,6.93
2023-02-01T00:39:59.928Z,4.97
2023-02-01T00:45:05.225Z,12.03
2023-02-01T00:50:10.725Z,12.07
2023-02-01T00:55:16.806Z,11.90
2023-02-01T01:00:22.431Z,12.00
2023-02-01T01:05:29.037Z,10.43
2023-02-01T01:10:36.262Z,14.60
2023-02-01T01:15:43.289Z,5.83
2023-02-01T01:20:50.946Z,9.63
2023-02-01T01:26:01.269Z,9.87
2023-02-01T01:31:06.654Z,7.37
2023-02-01T01:36:18.981Z,9.03
2023-02-01T01:41:27.681Z,9.33
2023-02-01T01:46:35.798Z,9.60
2023-02-01T01:51:48.203Z,6.00
2023-02-01T01:56:57.994Z,10.43
2023-02-01T02:02:03.127Z,8.07
2023-02-01T02:07:13.910Z,9.00
2023-02-01T02:12:22.673Z,9.07
2023-02-01T02:17:41.315Z,9.53
2023-02-01T02:23:21.465Z,6.53
2023-02-01T02:28:55.211Z,8.73
2023-02-01T02:34:14.495Z,11.63
2023-02-01T02:39:31.485Z,9.47
2023-02-01T02:45:04.292Z,8.23
2023-02-01T02:50:47.831Z,7.20
2023-02-01T02:55:57.121Z,10.97
2023-02-01T03:01:21.356Z,8.27
2023-02-01T03:06:31.357Z,13.33
2023-02-01T03:12:00.276Z,7.93
2023-02-01T03:17:12.805Z,7.80
2023-02-01T03:22:25.689Z,11.57
2023-02-01T03:27:36.081Z,10.67
2023-02-01T03:32:55.933Z,13.93
2023-02-01T03:38:13.933Z,11.73
2023-02-01T03:43:22.319Z,10.40
2023-02-01T03:48:29.906Z,13.87
2023-02-01T03:53:44.087Z,13.83
2023-02-01T03:59:07.283Z,11.00
2023-02-01T04:04:21.208Z,11.63
2023-02-01T04:09:26.923Z,6.73
2023-02-01T04:14:31.691Z,12.43
2023-02-01T04:19:36.575Z,8.33
2023-02-01T04:24:42.557Z,8.43
2023-02-01T04:29:52.546Z,9.03
2023-02-01T04:34:57.583Z,12.73
2023-02-01T04:40:04.855Z,10.30
2023-02-01T04:45:12.425Z,9.43
2023-02-01T04:50:22.188Z,15.57
2023-02-01T04:55:32.948Z,13.30
2023-02-01T05:00:46.643Z,11.40
2023-02-01T05:06:01.103Z,10.13
2023-02-01T05:11:06.872Z,9.83
2023-02-01T05:16:27.223Z,12.50
2023-02-01T05:21:32.926Z,10.73
2023-02-01T05:26:52.000Z,9.80
2023-02-01T05:32:15.398Z,11.53
2023-02-01T05:37:26.763Z,11.00
2023-02-01T05:42:53.857Z,9.87
2023-02-01T05:48:00.545Z,10.37
2023-02-01T05:53:08.934Z,8.63
2023-02-01T05:58:33.024Z,11.20
2023-02-01T06:03:38.562Z,11.00
2023-02-01T06:08:46.903Z,10.70
2023-02-01T06:13:55.100Z,6.90
2023-02-01T06:19:01.127Z,8.13
2023-02-01T06:24:08.138Z,8.93
2023-02-01T06:29:15.174Z,8.77
2023-02-01T06:34:22.391Z,9.40
2023-02-01T06:39:28.971Z,11.90
2023-02-01T06:44:43.164Z,10.67
2023-02-01T06:49:55.702Z,10.03
2023-02-01T06:55:00.104Z,8.70
2023-02-01T07:00:26.214Z,10.33
2023-02-01T07:05:31.414Z,10.30
2023-02-01T07:10:37.706Z,9.73
2023-02-01T07:15:45.674Z,8.60
2023-02-01T07:21:01.601Z,10.20
2023-02-01T07:26:09.142Z,9.03
2023-02-01T07:31:19.754Z,9.23
2023-02-01T07:36:26.719Z,9.67
2023-02-01T07:41:46.418Z,10.33
2023-02-01T07:47:05.247Z,13.03
2023-02-01T07:52:12.723Z,7.17
2023-02-01T07:57:21.845Z,8.03
2023-02-01T08:02:32.235Z,11.83
2023-02-01T08:07:47.797Z,13.77
2023-02-01T08:13:02.668Z,11.00
2023-02-01T08:18:11.329Z,11.53
2023-02-01T08:23:15.880Z,8.73
2023-02-01T08:28:23.976Z,6.73
2023-02-01T08:39:00.652Z,7.97
2023-02-01T08:44:04.317Z,5.60
2023-02-01T08:49:07.956Z,8.73
2023-02-01T08:54:13.026Z,5.77
2023-02-01T08:59:16.015Z,6.13
2023-02-01T09:04:19.470Z,10.77
2023-02-01T09:09:24.020Z,7.23
2023-02-01T09:14:27.108Z,7.23
2023-02-01T09:19:30.321Z,8.83
2023-02-01T09:24:35.581Z,10.80
2023-02-01T09:29:39.001Z,10.10
2023-02-01T09:34:42.106Z,10.73
2023-02-01T09:39:47.333Z,11.53
2023-02-01T09:45:08.918Z,9.33
2023-02-01T09:50:18.060Z,8.77
2023-02-01T09:55:28.257Z,11.83
2023-02-01T10:00:36.707Z,9.37
2023-02-01T10:05:54.116Z,8.33
2023-02-01T10:11:09.691Z,9.80
2023-02-01T10:16:34.201Z,7.97
2023-02-01T10:21:53.153Z,9.67
2023-02-01T10:27:04.116Z,8.53
2023-02-01T10:32:15.223Z,7.77
2023-02-01T10:37:29.047Z,12.60
2023-02-01T10:42:33.875Z,11.47
2023-02-01T10:47:37.194Z,9.67
2023-02-01T10:52:45.930Z,7.87
2023-02-01T10:57:58.402Z,11.53
2023-02-01T11:03:01.836Z,8.83
2023-02-01T11:08:05.614Z,7.43
2023-02-01T11:13:18.246Z,8.43
2023-02-01T11:18:31.306Z,4.00
2023-02-01T11:23:37.436Z,6.87
2023-02-01T11:28:50.205Z,7.20
2023-02-01T11:33:56.613Z,7.10
2023-02-01T11:39:12.716Z,7.27
2023-02-01T11:44:23.958Z,5.43
2023-02-01T11:49:29.650Z,4.77
2023-02-01T11:54:50.966Z,9.30
2023-02-01T12:00:22.314Z,7.10
2023-02-01T12:05:34.752Z,7.57
2023-02-01T12:10:50.829Z,12.23
2023-02-01T12:16:04.976Z,5.57
2023-02-01T12:21:21.349Z,5.83
2023-02-01T12:26:43.304Z,9.23
2023-02-01T12:32:13.056Z,4.97
2023-02-01T12:37:26.570Z,6.30
2023-02-01T12:42:34.937Z,4.60
2023-02-01T12:47:44.611Z,8.27
2023-02-01T12:52:51.235Z,9.43
2023-02-01T12:57:58.460Z,7.97
2023-02-01T13:03:07.982Z,9.13
2023-02-01T13:08:14.815Z,5.37
2023-02-01T13:13:24.657Z,8.20
2023-02-01T13:18:38.190Z,7.67
2023-02-01T13:23:43.596Z,6.13
2023-02-01T13:28:50.446Z,7.63
2023-02-01T13:34:09.342Z,9.73
2023-02-01T13:39:46.068Z,8.27
2023-02-01T13:44:52.445Z,8.77
2023-02-01T13:50:01.023Z,8.67
2023-02-01T13:55:18.463Z,7.27
2023-02-01T14:00:34.110Z,6.47
2023-02-01T14:06:03.590Z,11.50
2023-02-01T14:11:06.762Z,7.10
2023-02-01T14:16:17.306Z,7.97
2023-02-01T14:21:28.459Z,4.90
2023-02-01T14:26:46.267Z,7.23
2023-02-01T14:32:05.075Z,5.87
2023-02-01T14:37:12.629Z,5.40
2023-02-01T14:42:24.640Z,4.80
2023-02-01T14:47:33.169Z,8.13
2023-02-01T14:52:43.495Z,6.70
2023-02-01T14:57:51.084Z,8.97
2023-02-01T15:02:56.144Z,7.90
2023-02-01T15:08:07.126Z,8.23
2023-02-01T15:13:21.696Z,7.67
2023-02-01T15:18:24.948Z,7.13
2023-02-01T15:23:29.996Z,9.27
2023-02-01T15:28:33.754Z,7.77
2023-02-01T15:33:36.934Z,8.03
2023-02-01T15:38:45.506Z,6.20
2023-02-01T15:44:05.506Z,6.47
2023-02-01T15:49:21.483Z,10.37
2023-02-01T15:54:32.211Z,9.50
2023-02-01T15:59:43.521Z,8.53
2023-02-01T16:04:51.928Z,4.97
2023-02-01T16:09:59.981Z,0.87
2023-02-01T16:15:03.349Z,0.80
2023-02-01T16:20:07.596Z,0.90
2023-02-01T16:25:12.194Z,1.70
2023-02-01T16:30:15.769Z,1.67
2023-02-01T16:35:25.372Z,1.27
2023-02-01T16:40:30.391Z,0.93
2023-02-01T16:45:33.714Z,1.00
2023-02-01T16:50:37.003Z,1.27
2023-02-01T16:55:44.522Z,2.20
2023-02-01T17:00:51.980Z,2.07
2023-02-01T17:05:59.237Z,1.40
2023-02-01T17:11:03.917Z,1.53
2023-02-01T17:16:14.868Z,0.73
2023-02-01T17:21:18.143Z,1.93
2023-02-01T17:26:23.129Z,2.60
2023-02-01T17:31:26.432Z,1.27
2023-02-01T17:36:30.966Z,2.30
2023-02-01T17:41:36.091Z,2.83
2023-02-01T17:46:40.750Z,2.03
2023-02-01T17:51:43.875Z,3.43
2023-02-01T17:56:49.764Z,1.63
2023-02-01T18:01:53.365Z,3.30
2023-02-01T18:06:57.781Z,3.17
2023-02-01T18:12:03.859Z,0.97
2023-02-01T18:17:09.309Z,2.27
2023-02-01T18:22:19.140Z,4.07
2023-02-01T18:27:24.092Z,1.50
2023-02-01T18:32:28.400Z,1.50
2023-02-01T18:37:34.472Z,2.13
2023-02-01T18:42:47.664Z,3.17
2023-02-01T18:47:51.393Z,2.13
2023-02-01T18:52:56.207Z,2.67
2023-02-01T18:58:01.830Z,2.23
2023-02-01T19:03:05.774Z,2.87
2023-02-01T19:08:09.683Z,3.20
2023-02-01T19:13:14.530Z,2.17
2023-02-01T19:18:20.446Z,2.67
2023-02-01T19:23:23.679Z,5.40
2023-02-01T19:28:28.251Z,2.20
2023-02-01T19:33:31.462Z,1.20
2023-02-01T19:38:35.077Z,2.80
2023-02-01T19:43:40.143Z,1.93
2023-02-01T19:48:43.662Z,3.17
2023-02-01T19:53:47.441Z,2.00
2023-02-01T19:58:52.759Z,4.40
2023-02-01T20:04:01.639Z,3.27
2023-02-01T20:09:09.458Z,4.00
2023-02-01T20:14:15.501Z,2.13
2023-02-01T20:19:24.266Z,6.70
2023-02-01T20:24:28.082Z,2.47
2023-02-01T20:29:34.014Z,5.80
2023-02-01T20:34:37.479Z,3.27
2023-02-01T20:39:40.946Z,3.17
2023-02-01T20:44:45.453Z,6.57
2023-02-01T20:49:48.664Z,6.37
2023-02-01T20:54:51.829Z,3.53
2023-02-01T20:59:56.372Z,4.80
2023-02-01T21:05:09.714Z,9.03
2023-02-01T21:10:13.068Z,4.53
2023-02-01T21:15:17.743Z,4.47
2023-02-01T21:20:21.491Z,2.50
2023-02-01T21:25:25.260Z,5.33
2023-02-01T21:30:29.955Z,4.07
2023-02-01T21:35:33.394Z,6.97
2023-02-01T21:40:36.656Z,4.77
2023-02-01T21:45:43.724Z,5.90
2023-02-01T21:50:54.157Z,6.07
2023-02-01T21:55:57.246Z,5.33
2023-02-01T22:01:01.967Z,3.73
2023-02-01T22:06:05.551Z,6.23
2023-02-01T22:11:08.680Z,2.20
2023-02-01T22:16:13.731Z,4.87
2023-02-01T22:21:16.903Z,4.50
2023-02-01T22:26:20.068Z,3.93
2023-02-01T22:31:24.842Z,4.13
2023-02-01T22:36:28.136Z,3.90
2023-02-01T22:41:31.990Z,2.47
2023-02-01T22:46:36.742Z,3.00
2023-02-01T22:51:40.027Z,3.73
2023-02-01T22:56:43.148Z,4.87
2023-02-01T23:01:47.728Z,4.27
2023-02-01T23:06:52.230Z,7.33
2023-02-01T23:11:55.874Z,7.73
2023-02-01T23:17:00.287Z,8.40
2023-02-01T23:22:03.474Z,5.03
2023-02-01T23:27:06.689Z,13.27
2023-02-01T23:32:11.185Z,6.33
2023-02-01T23:37:14.470Z,7.93
2023-02-01T23:42:17.881Z,8.87
2023-02-01T23:47:22.517Z,6.00
2023-02-01T23:52:25.743Z,11.93
2023-02-01T23:57:29.019Z,11.33
